Aviation Digital Data Service (ADDS)

Output produced by METARs form (0532 UTC 24 January 2019)
found at http://www.aviationweather.gov/metar/data/
 
METAR text: ZMUB 240530Z VRB01MPS CAVOK M10/M16 Q1032 NOSIG RMK QFE665.0 59
Conditions at: ZMUB (ULAN-BATOR , MG) observed 0530 UTC 24 January 2019
Temperature: -10.0°C (14°F)
Dewpoint: -16.0°C ( 3°F) [RH = 61%]
Pressure (altimeter): 30.47 inches Hg (1032.0 mb)
Winds: variable direction winds at 2 MPH (2 knots; 1.0 m/s)
Visibility: 6 or more miles (10+ km)
Ceiling: ceiling and visibility are OK
Clouds: unknown
Weather: no significant weather observed at this time

METAR text: ZMUB 240500Z VRB01MPS CAVOK M11/M16 Q1032 NOSIG RMK QFE665.0 62
Conditions at: ZMUB (ULAN-BATOR , MG) observed 0500 UTC 24 January 2019
Temperature: -11.0°C (12°F)
Dewpoint: -16.0°C ( 3°F) [RH = 67%]
Pressure (altimeter): 30.47 inches Hg (1032.0 mb)
Winds: variable direction winds at 2 MPH (2 knots; 1.0 m/s)
Visibility: 6 or more miles (10+ km)
Ceiling: ceiling and visibility are OK
Clouds: unknown
Weather: no significant weather observed at this time

METAR text: ZMUB 240430Z VRB01MPS CAVOK M12/M17 Q1032 NOSIG RMK QFE665.1 63
Conditions at: ZMUB (ULAN-BATOR , MG) observed 0430 UTC 24 January 2019
Temperature: -12.0°C (10°F)
Dewpoint: -17.0°C ( 1°F) [RH = 66%]
Pressure (altimeter): 30.47 inches Hg (1032.0 mb)
Winds: variable direction winds at 2 MPH (2 knots; 1.0 m/s)
Visibility: 6 or more miles (10+ km)
Ceiling: ceiling and visibility are OK
Clouds: unknown
Weather: no significant weather observed at this time

METAR text: ZMUB 240400Z VRB01MPS CAVOK M13/M16 Q1032 NOSIG RMK QFE665.2 71
Conditions at: ZMUB (ULAN-BATOR , MG) observed 0400 UTC 24 January 2019
Temperature: -13.0°C ( 9°F)
Dewpoint: -16.0°C ( 3°F) [RH = 78%]
Pressure (altimeter): 30.47 inches Hg (1032.0 mb)
Winds: variable direction winds at 2 MPH (2 knots; 1.0 m/s)
Visibility: 6 or more miles (10+ km)
Ceiling: ceiling and visibility are OK
Clouds: unknown
Weather: no significant weather observed at this time

METAR text: ZMUB 240330Z VRB01MPS CAVOK M13/M17 Q1032 NOSIG RMK QFE665.2 71
Conditions at: ZMUB (ULAN-BATOR , MG) observed 0330 UTC 24 January 2019
Temperature: -13.0°C ( 9°F)
Dewpoint: -17.0°C ( 1°F) [RH = 72%]
Pressure (altimeter): 30.47 inches Hg (1032.0 mb)
Winds: variable direction winds at 2 MPH (2 knots; 1.0 m/s)
Visibility: 6 or more miles (10+ km)
Ceiling: ceiling and visibility are OK
Clouds: unknown
Weather: no significant weather observed at this time

METAR text: ZMUB 240300Z VRB01MPS CAVOK M14/M17 Q1032 NOSIG RMK QFE665.0 74
Conditions at: ZMUB (ULAN-BATOR , MG) observed 0300 UTC 24 January 2019
Temperature: -14.0°C ( 7°F)
Dewpoint: -17.0°C ( 1°F) [RH = 78%]
Pressure (altimeter): 30.47 inches Hg (1032.0 mb)
Winds: variable direction winds at 2 MPH (2 knots; 1.0 m/s)
Visibility: 6 or more miles (10+ km)
Ceiling: ceiling and visibility are OK
Clouds: unknown
Weather: no significant weather observed at this time

METAR text: ZMUB 240230Z VRB01MPS CAVOK M15/M17 Q1032 NOSIG RMK QFE664.9 82
Conditions at: ZMUB (ULAN-BATOR , MG) observed 0230 UTC 24 January 2019
Temperature: -15.0°C ( 5°F)
Dewpoint: -17.0°C ( 1°F) [RH = 85%]
Pressure (altimeter): 30.47 inches Hg (1032.0 mb)
Winds: variable direction winds at 2 MPH (2 knots; 1.0 m/s)
Visibility: 6 or more miles (10+ km)
Ceiling: ceiling and visibility are OK
Clouds: unknown
Weather: no significant weather observed at this time

METAR text: ZMUB 240200Z VRB01MPS CAVOK M18/M20 Q1032 NOSIG RMK QFE664.9 80
Conditions at: ZMUB (ULAN-BATOR , MG) observed 0200 UTC 24 January 2019
Temperature: -18.0°C (-0°F)
Dewpoint: -20.0°C (-4°F) [RH = 84%]
Pressure (altimeter): 30.47 inches Hg (1032.0 mb)
Winds: variable direction winds at 2 MPH (2 knots; 1.0 m/s)
Visibility: 6 or more miles (10+ km)
Ceiling: ceiling and visibility are OK
Clouds: unknown
Weather: no significant weather observed at this time

METAR text: ZMUB 240130Z 16002MPS CAVOK M21/M23 Q1031 NOSIG RMK QFE664.8 78
Conditions at: ZMUB (ULAN-BATOR , MG) observed 0130 UTC 24 January 2019
Temperature: -21.0°C (-6°F)
Dewpoint: -23.0°C (-9°F) [RH = 84%]
Pressure (altimeter): 30.44 inches Hg (1031.0 mb)
Winds: from the SSE (160 degrees) at 5 MPH (4 knots; 2.1 m/s)
Visibility: 6 or more miles (10+ km)
Ceiling: ceiling and visibility are OK
Clouds: unknown
Weather: no significant weather observed at this time

METAR text: ZMUB 240100Z 17003MPS CAVOK M23/M25 Q1031 NOSIG RMK QFE664.5 78
Conditions at: ZMUB (ULAN-BATOR , MG) observed 0100 UTC 24 January 2019
Temperature: -23.0°C (-9°F)
Dewpoint: -25.0°C (-13°F) [RH = 84%]
Pressure (altimeter): 30.44 inches Hg (1031.0 mb)
Winds: from the S (170 degrees) at 7 MPH (6 knots; 3.1 m/s)
Visibility: 6 or more miles (10+ km)
Ceiling: ceiling and visibility are OK
Clouds: unknown
Weather: no significant weather observed at this time

METAR text: ZMUB 240030Z 18002MPS CAVOK M23/M26 Q1031 NOSIG RMK QFE664.2 74
Conditions at: ZMUB (ULAN-BATOR , MG) observed 0030 UTC 24 January 2019
Temperature: -23.0°C (-9°F)
Dewpoint: -26.0°C (-15°F) [RH = 76%]
Pressure (altimeter): 30.44 inches Hg (1031.0 mb)
Winds: from the S (180 degrees) at 5 MPH (4 knots; 2.1 m/s)
Visibility: 6 or more miles (10+ km)
Ceiling: ceiling and visibility are OK
Clouds: unknown
Weather: no significant weather observed at this time

METAR text: ZMUB 240000Z 15003MPS CAVOK M24/M27 Q1030 NOSIG RMK QFE664.0 73
Conditions at: ZMUB (ULAN-BATOR , MG) observed 0000 UTC 24 January 2019
Temperature: -24.0°C (-11°F)
Dewpoint: -27.0°C (-17°F) [RH = 76%]
Pressure (altimeter): 30.41 inches Hg (1030.0 mb)
Winds: from the SSE (150 degrees) at 7 MPH (6 knots; 3.1 m/s)
Visibility: 6 or more miles (10+ km)
Ceiling: ceiling and visibility are OK
Clouds: unknown
Weather: no significant weather observed at this time

METAR text: ZMUB 232330Z 17003MPS 140V210 CAVOK M23/M26 Q1030 NOSIG RMK QFE663.6 77
Conditions at: ZMUB (ULAN-BATOR , MG) observed 2330 UTC 23 January 2019
Temperature: -23.0°C (-9°F)
Dewpoint: -26.0°C (-15°F) [RH = 76%]
Pressure (altimeter): 30.41 inches Hg (1030.0 mb)
Winds: from the S (170 degrees) at 7 MPH (6 knots; 3.1 m/s)
Visibility: 6 or more miles (10+ km)
Ceiling: ceiling and visibility are OK
Clouds: unknown
Weather: no significant weather observed at this time

METAR text: ZMUB 232300Z 17003MPS CAVOK M22/M25 Q1029 NOSIG RMK QFE663.4 76
Conditions at: ZMUB (ULAN-BATOR , MG) observed 2300 UTC 23 January 2019
Temperature: -22.0°C (-8°F)
Dewpoint: -25.0°C (-13°F) [RH = 77%]
Pressure (altimeter): 30.38 inches Hg (1029.0 mb)
Winds: from the S (170 degrees) at 7 MPH (6 knots; 3.1 m/s)
Visibility: 6 or more miles (10+ km)
Ceiling: ceiling and visibility are OK
Clouds: unknown
Weather: no significant weather observed at this time

METAR text: ZMUB 232230Z VRB01MPS CAVOK M25/M28 Q1029 NOSIG RMK QFE663.3 73
Conditions at: ZMUB (ULAN-BATOR , MG) observed 2230 UTC 23 January 2019
Temperature: -25.0°C (-13°F)
Dewpoint: -28.0°C (-18°F) [RH = 76%]
Pressure (altimeter): 30.38 inches Hg (1029.0 mb)
Winds: variable direction winds at 2 MPH (2 knots; 1.0 m/s)
Visibility: 6 or more miles (10+ km)
Ceiling: ceiling and visibility are OK
Clouds: unknown
Weather: no significant weather observed at this time

METAR text: ZMUB 232200Z VRB01MPS CAVOK M21/M24 Q1029 NOSIG RMK QFE663.3 78
Conditions at: ZMUB (ULAN-BATOR , MG) observed 2200 UTC 23 January 2019
Temperature: -21.0°C (-6°F)
Dewpoint: -24.0°C (-11°F) [RH = 77%]
Pressure (altimeter): 30.38 inches Hg (1029.0 mb)
Winds: variable direction winds at 2 MPH (2 knots; 1.0 m/s)
Visibility: 6 or more miles (10+ km)
Ceiling: ceiling and visibility are OK
Clouds: unknown
Weather: no significant weather observed at this time

METAR text: ZMUB 232130Z 00000MPS CAVOK M22/M25 Q1029 NOSIG RMK QFE663.0 75
Conditions at: ZMUB (ULAN-BATOR , MG) observed 2130 UTC 23 January 2019
Temperature: -22.0°C (-8°F)
Dewpoint: -25.0°C (-13°F) [RH = 77%]
Pressure (altimeter): 30.38 inches Hg (1029.0 mb)
Winds: calm
Visibility: 6 or more miles (10+ km)
Ceiling: ceiling and visibility are OK
Clouds: unknown
Weather: no significant weather observed at this time

METAR text: ZMUB 232100Z VRB01MPS CAVOK M20/M23 Q1029 NOSIG RMK QFE662.9 80
Conditions at: ZMUB (ULAN-BATOR , MG) observed 2100 UTC 23 January 2019
Temperature: -20.0°C (-4°F)
Dewpoint: -23.0°C (-9°F) [RH = 77%]
Pressure (altimeter): 30.38 inches Hg (1029.0 mb)
Winds: variable direction winds at 2 MPH (2 knots; 1.0 m/s)
Visibility: 6 or more miles (10+ km)
Ceiling: ceiling and visibility are OK
Clouds: unknown
Weather: no significant weather observed at this time

METAR text: ZMUB 232000Z 30002MPS CAVOK M16/M19 Q1028 NOSIG RMK QFE662.7 76
Conditions at: ZMUB (ULAN-BATOR , MG) observed 2000 UTC 23 January 2019
Temperature: -16.0°C ( 3°F)
Dewpoint: -19.0°C (-2°F) [RH = 78%]
Pressure (altimeter): 30.35 inches Hg (1028.0 mb)
Winds: from the WNW (300 degrees) at 5 MPH (4 knots; 2.1 m/s)
Visibility: 6 or more miles (10+ km)
Ceiling: ceiling and visibility are OK
Clouds: unknown
Weather: no significant weather observed at this time

METAR text: ZMUB 231900Z VRB02MPS CAVOK M15/M18 Q1028 NOSIG RMK QFE662.5 74
Conditions at: ZMUB (ULAN-BATOR , MG) observed 1900 UTC 23 January 2019
Temperature: -15.0°C ( 5°F)
Dewpoint: -18.0°C (-0°F) [RH = 78%]
Pressure (altimeter): 30.35 inches Hg (1028.0 mb)
Winds: variable direction winds at 5 MPH (4 knots; 2.1 m/s)
Visibility: 6 or more miles (10+ km)
Ceiling: ceiling and visibility are OK
Clouds: unknown
Weather: no significant weather observed at this time

METAR text: ZMUB 231800Z 32003MPS CAVOK M17/M20 Q1027 NOSIG RMK QFE662.2 75
Conditions at: ZMUB (ULAN-BATOR , MG) observed 1800 UTC 23 January 2019
Temperature: -17.0°C ( 1°F)
Dewpoint: -20.0°C (-4°F) [RH = 77%]
Pressure (altimeter): 30.32 inches Hg (1027.0 mb)
Winds: from the NW (320 degrees) at 7 MPH (6 knots; 3.1 m/s)
Visibility: 6 or more miles (10+ km)
Ceiling: ceiling and visibility are OK
Clouds: unknown
Weather: no significant weather observed at this time

METAR text: ZMUB 231700Z 33006MPS CAVOK M13/M17 Q1027 NOSIG RMK QFE661.7 69
Conditions at: ZMUB (ULAN-BATOR , MG) observed 1700 UTC 23 January 2019
Temperature: -13.0°C ( 9°F)
Dewpoint: -17.0°C ( 1°F) [RH = 72%]
Pressure (altimeter): 30.32 inches Hg (1027.0 mb)
Winds: from the NNW (330 degrees) at 14 MPH (12 knots; 6.2 m/s)
Visibility: 6 or more miles (10+ km)
Ceiling: ceiling and visibility are OK
Clouds: unknown
Weather: no significant weather observed at this time

METAR text: ZMUB 231600Z 32007MPS CAVOK M13/M16 Q1026 NOSIG RMK QFE661.4 73
Conditions at: ZMUB (ULAN-BATOR , MG) observed 1600 UTC 23 January 2019
Temperature: -13.0°C ( 9°F)
Dewpoint: -16.0°C ( 3°F) [RH = 78%]
Pressure (altimeter): 30.30 inches Hg (1026.0 mb)
Winds: from the NW (320 degrees) at 16 MPH (14 knots; 7.2 m/s)
Visibility: 6 or more miles (10+ km)
Ceiling: ceiling and visibility are OK
Clouds: unknown
Weather: no significant weather observed at this time

METAR text: ZMUB 231530Z 33003MPS CAVOK M13/M17 Q1026 NOSIG RMK QFE661.3 74
Conditions at: ZMUB (ULAN-BATOR , MG) observed 1530 UTC 23 January 2019
Temperature: -13.0°C ( 9°F)
Dewpoint: -17.0°C ( 1°F) [RH = 72%]
Pressure (altimeter): 30.30 inches Hg (1026.0 mb)
Winds: from the NNW (330 degrees) at 7 MPH (6 knots; 3.1 m/s)
Visibility: 6 or more miles (10+ km)
Ceiling: ceiling and visibility are OK
Clouds: unknown
Weather: no significant weather observed at this time

METAR text: ZMUB 231500Z 34006MPS CAVOK M12/M16 Q1026 NOSIG RMK QFE661.1 72
Conditions at: ZMUB (ULAN-BATOR , MG) observed 1500 UTC 23 January 2019
Temperature: -12.0°C (10°F)
Dewpoint: -16.0°C ( 3°F) [RH = 72%]
Pressure (altimeter): 30.30 inches Hg (1026.0 mb)
Winds: from the NNW (340 degrees) at 14 MPH (12 knots; 6.2 m/s)
Visibility: 6 or more miles (10+ km)
Ceiling: ceiling and visibility are OK
Clouds: unknown
Weather: no significant weather observed at this time

METAR text: ZMUB 231430Z 34005MPS CAVOK M12/M16 Q1026 NOSIG RMK QFE661.0 73
Conditions at: ZMUB (ULAN-BATOR , MG) observed 1430 UTC 23 January 2019
Temperature: -12.0°C (10°F)
Dewpoint: -16.0°C ( 3°F) [RH = 72%]
Pressure (altimeter): 30.30 inches Hg (1026.0 mb)
Winds: from the NNW (340 degrees) at 12 MPH (10 knots; 5.1 m/s)
Visibility: 6 or more miles (10+ km)
Ceiling: ceiling and visibility are OK
Clouds: unknown
Weather: no significant weather observed at this time

METAR text: ZMUB 231400Z 35007MPS CAVOK M12/M16 Q1025 NOSIG RMK QFE660.7 72
Conditions at: ZMUB (ULAN-BATOR , MG) observed 1400 UTC 23 January 2019
Temperature: -12.0°C (10°F)
Dewpoint: -16.0°C ( 3°F) [RH = 72%]
Pressure (altimeter): 30.27 inches Hg (1025.0 mb)
Winds: from the N (350 degrees) at 16 MPH (14 knots; 7.2 m/s)
Visibility: 6 or more miles (10+ km)
Ceiling: ceiling and visibility are OK
Clouds: unknown
Weather: no significant weather observed at this time

METAR text: ZMUB 231330Z 34008MPS CAVOK M12/M16 Q1025 NOSIG RMK QFE660.8 73
Conditions at: ZMUB (ULAN-BATOR , MG) observed 1330 UTC 23 January 2019
Temperature: -12.0°C (10°F)
Dewpoint: -16.0°C ( 3°F) [RH = 72%]
Pressure (altimeter): 30.27 inches Hg (1025.0 mb)
Winds: from the NNW (340 degrees) at 18 MPH (16 knots; 8.2 m/s)
Visibility: 6 or more miles (10+ km)
Ceiling: ceiling and visibility are OK
Clouds: unknown
Weather: no significant weather observed at this time

METAR text: ZMUB 231300Z 34007MPS CAVOK M12/M15 Q1025 NOSIG RMK QFE660.6 72
Conditions at: ZMUB (ULAN-BATOR , MG) observed 1300 UTC 23 January 2019
Temperature: -12.0°C (10°F)
Dewpoint: -15.0°C ( 5°F) [RH = 78%]
Pressure (altimeter): 30.27 inches Hg (1025.0 mb)
Winds: from the NNW (340 degrees) at 16 MPH (14 knots; 7.2 m/s)
Visibility: 6 or more miles (10+ km)
Ceiling: ceiling and visibility are OK
Clouds: unknown
Weather: no significant weather observed at this time

METAR text: ZMUB 231230Z 35007MPS CAVOK M11/M15 Q1025 NOSIG RMK QFE660.5 70
Conditions at: ZMUB (ULAN-BATOR , MG) observed 1230 UTC 23 January 2019
Temperature: -11.0°C (12°F)
Dewpoint: -15.0°C ( 5°F) [RH = 72%]
Pressure (altimeter): 30.27 inches Hg (1025.0 mb)
Winds: from the N (350 degrees) at 16 MPH (14 knots; 7.2 m/s)
Visibility: 6 or more miles (10+ km)
Ceiling: ceiling and visibility are OK
Clouds: unknown
Weather: no significant weather observed at this time

METAR text: ZMUB 231200Z 35007MPS CAVOK M10/M14 Q1024 NOSIG RMK QFE660.2 68
Conditions at: ZMUB (ULAN-BATOR , MG) observed 1200 UTC 23 January 2019
Temperature: -10.0°C (14°F)
Dewpoint: -14.0°C ( 7°F) [RH = 72%]
Pressure (altimeter): 30.24 inches Hg (1024.0 mb)
Winds: from the N (350 degrees) at 16 MPH (14 knots; 7.2 m/s)
Visibility: 6 or more miles (10+ km)
Ceiling: ceiling and visibility are OK
Clouds: unknown
Weather: no significant weather observed at this time

METAR text: ZMUB 231130Z 34008MPS CAVOK M10/M14 Q1024 NOSIG RMK QFE659.9 68
Conditions at: ZMUB (ULAN-BATOR , MG) observed 1130 UTC 23 January 2019
Temperature: -10.0°C (14°F)
Dewpoint: -14.0°C ( 7°F) [RH = 72%]
Pressure (altimeter): 30.24 inches Hg (1024.0 mb)
Winds: from the NNW (340 degrees) at 18 MPH (16 knots; 8.2 m/s)
Visibility: 6 or more miles (10+ km)
Ceiling: ceiling and visibility are OK
Clouds: unknown
Weather: no significant weather observed at this time

METAR text: ZMUB 231100Z 34007MPS CAVOK M10/M14 Q1023 NOSIG RMK QFE659.4 67
Conditions at: ZMUB (ULAN-BATOR , MG) observed 1100 UTC 23 January 2019
Temperature: -10.0°C (14°F)
Dewpoint: -14.0°C ( 7°F) [RH = 72%]
Pressure (altimeter): 30.21 inches Hg (1023.0 mb)
Winds: from the NNW (340 degrees) at 16 MPH (14 knots; 7.2 m/s)
Visibility: 6 or more miles (10+ km)
Ceiling: ceiling and visibility are OK
Clouds: unknown
Weather: no significant weather observed at this time

METAR text: ZMUB 231030Z 35007MPS CAVOK M09/M14 Q1022 NOSIG RMK QFE658.9 66
Conditions at: ZMUB (ULAN-BATOR , MG) observed 1030 UTC 23 January 2019
Temperature: -9.0°C (16°F)
Dewpoint: -14.0°C ( 7°F) [RH = 67%]
Pressure (altimeter): 30.18 inches Hg (1022.0 mb)
Winds: from the N (350 degrees) at 16 MPH (14 knots; 7.2 m/s)
Visibility: 6 or more miles (10+ km)
Ceiling: ceiling and visibility are OK
Clouds: unknown
Weather: no significant weather observed at this time

METAR text: ZMUB 231000Z 35007MPS 320V030 CAVOK M09/M14 Q1021 NOSIG RMK QFE658.3 63
Conditions at: ZMUB (ULAN-BATOR , MG) observed 1000 UTC 23 January 2019
Temperature: -9.0°C (16°F)
Dewpoint: -14.0°C ( 7°F) [RH = 67%]
Pressure (altimeter): 30.15 inches Hg (1021.0 mb)
Winds: from the N (350 degrees) at 16 MPH (14 knots; 7.2 m/s)
Visibility: 6 or more miles (10+ km)
Ceiling: ceiling and visibility are OK
Clouds: unknown
Weather: no significant weather observed at this time

METAR text: ZMUB 230930Z 36006MPS 320V030 CAVOK M08/M14 Q1020 NOSIG RMK QFE657.7 62
Conditions at: ZMUB (ULAN-BATOR , MG) observed 0930 UTC 23 January 2019
Temperature: -8.0°C (18°F)
Dewpoint: -14.0°C ( 7°F) [RH = 62%]
Pressure (altimeter): 30.12 inches Hg (1020.0 mb)
Winds: from the N (360 degrees) at 14 MPH (12 knots; 6.2 m/s)
Visibility: 6 or more miles (10+ km)
Ceiling: ceiling and visibility are OK
Clouds: unknown
Weather: no significant weather observed at this time

METAR text: ZMUB 230900Z 36006G12MPS CAVOK M08/M13 Q1020 NOSIG RMK QFE657.3 60
Conditions at: ZMUB (ULAN-BATOR , MG) observed 0900 UTC 23 January 2019
Temperature: -8.0°C (18°F)
Dewpoint: -13.0°C ( 9°F) [RH = 67%]
Pressure (altimeter): 30.12 inches Hg (1020.0 mb)
Winds: from the N (360 degrees) at 14 MPH (12 knots; 6.2 m/s)
gusting to 26 MPH (23 knots; 11.8 m/s)
Visibility: 6 or more miles (10+ km)
Ceiling: ceiling and visibility are OK
Clouds: unknown
Weather: no significant weather observed at this time

METAR text: ZMUB 230830Z 36006MPS 320V040 CAVOK M07/M13 Q1019 NOSIG RMK QFE657.0 59
Conditions at: ZMUB (ULAN-BATOR , MG) observed 0830 UTC 23 January 2019
Temperature: -7.0°C (19°F)
Dewpoint: -13.0°C ( 9°F) [RH = 62%]
Pressure (altimeter): 30.09 inches Hg (1019.0 mb)
Winds: from the N (360 degrees) at 14 MPH (12 knots; 6.2 m/s)
Visibility: 6 or more miles (10+ km)
Ceiling: ceiling and visibility are OK
Clouds: unknown
Weather: no significant weather observed at this time

METAR text: ZMUB 230800Z 35007MPS 310V020 CAVOK M06/M13 Q1018 NOSIG RMK QFE656.4 55
Conditions at: ZMUB (ULAN-BATOR , MG) observed 0800 UTC 23 January 2019
Temperature: -6.0°C (21°F)
Dewpoint: -13.0°C ( 9°F) [RH = 58%]
Pressure (altimeter): 30.06 inches Hg (1018.0 mb)
Winds: from the N (350 degrees) at 16 MPH (14 knots; 7.2 m/s)
Visibility: 6 or more miles (10+ km)
Ceiling: ceiling and visibility are OK
Clouds: unknown
Weather: no significant weather observed at this time

METAR text: ZMUB 230730Z 01005MPS 340V040 CAVOK M06/M15 Q1018 NOSIG RMK QFE656.0 46
Conditions at: ZMUB (ULAN-BATOR , MG) observed 0730 UTC 23 January 2019
Temperature: -6.0°C (21°F)
Dewpoint: -15.0°C ( 5°F) [RH = 49%]
Pressure (altimeter): 30.06 inches Hg (1018.0 mb)
Winds: from the N (10 degrees) at 12 MPH (10 knots; 5.1 m/s)
Visibility: 6 or more miles (10+ km)
Ceiling: ceiling and visibility are OK
Clouds: unknown
Weather: no significant weather observed at this time

METAR text: ZMUB 230700Z 01007MPS CAVOK M06/M16 Q1017 NOSIG RMK QFE655.7 43
Conditions at: ZMUB (ULAN-BATOR , MG) observed 0700 UTC 23 January 2019
Temperature: -6.0°C (21°F)
Dewpoint: -16.0°C ( 3°F) [RH = 45%]
Pressure (altimeter): 30.03 inches Hg (1017.0 mb)
Winds: from the N (10 degrees) at 16 MPH (14 knots; 7.2 m/s)
Visibility: 6 or more miles (10+ km)
Ceiling: ceiling and visibility are OK
Clouds: unknown
Weather: no significant weather observed at this time

METAR text: ZMUB 230630Z 36006MPS 320V030 CAVOK M06/M17 Q1017 NOSIG RMK QFE655.6 38
Conditions at: ZMUB (ULAN-BATOR , MG) observed 0630 UTC 23 January 2019
Temperature: -6.0°C (21°F)
Dewpoint: -17.0°C ( 1°F) [RH = 41%]
Pressure (altimeter): 30.03 inches Hg (1017.0 mb)
Winds: from the N (360 degrees) at 14 MPH (12 knots; 6.2 m/s)
Visibility: 6 or more miles (10+ km)
Ceiling: ceiling and visibility are OK
Clouds: unknown
Weather: no significant weather observed at this time

METAR text: ZMUB 230600Z 33005MPS CAVOK M07/M17 Q1017 NOSIG RMK QFE655.4 39
Conditions at: ZMUB (ULAN-BATOR , MG) observed 0600 UTC 23 January 2019
Temperature: -7.0°C (19°F)
Dewpoint: -17.0°C ( 1°F) [RH = 45%]
Pressure (altimeter): 30.03 inches Hg (1017.0 mb)
Winds: from the NNW (330 degrees) at 12 MPH (10 knots; 5.1 m/s)
Visibility: 6 or more miles (10+ km)
Ceiling: ceiling and visibility are OK
Clouds: unknown
Weather: no significant weather observed at this time

METAR text: ZMUB 230530Z 34005MPS CAVOK M07/M18 Q1017 NOSIG RMK QFE655.2 39
Conditions at: ZMUB (ULAN-BATOR , MG) observed 0530 UTC 23 January 2019
Temperature: -7.0°C (19°F)
Dewpoint: -18.0°C (-0°F) [RH = 41%]
Pressure (altimeter): 30.03 inches Hg (1017.0 mb)
Winds: from the NNW (340 degrees) at 12 MPH (10 knots; 5.1 m/s)
Visibility: 6 or more miles (10+ km)
Ceiling: ceiling and visibility are OK
Clouds: unknown
Weather: no significant weather observed at this time

METAR text: ZMUB 230500Z VRB02MPS CAVOK M07/M18 Q1016 NOSIG RMK QFE655.0 37
Conditions at: ZMUB (ULAN-BATOR , MG) observed 0500 UTC 23 January 2019
Temperature: -7.0°C (19°F)
Dewpoint: -18.0°C (-0°F) [RH = 41%]
Pressure (altimeter): 30.00 inches Hg (1016.0 mb)
Winds: variable direction winds at 5 MPH (4 knots; 2.1 m/s)
Visibility: 6 or more miles (10+ km)
Ceiling: ceiling and visibility are OK
Clouds: unknown
Weather: no significant weather observed at this time

METAR text: ZMUB 230430Z 29004MPS 260V320 CAVOK M08/M18 Q1016 NOSIG RMK QFE655.1 41
Conditions at: ZMUB (ULAN-BATOR , MG) observed 0430 UTC 23 January 2019
Temperature: -8.0°C (18°F)
Dewpoint: -18.0°C (-0°F) [RH = 44%]
Pressure (altimeter): 30.00 inches Hg (1016.0 mb)
Winds: from the WNW (290 degrees) at 9 MPH (8 knots; 4.1 m/s)
Visibility: 6 or more miles (10+ km)
Ceiling: ceiling and visibility are OK
Clouds: unknown
Weather: no significant weather observed at this time

METAR text: ZMUB 230400Z 29003MPS 250V350 CAVOK M09/M19 Q1017 NOSIG RMK QFE655.2 42
Conditions at: ZMUB (ULAN-BATOR , MG) observed 0400 UTC 23 January 2019
Temperature: -9.0°C (16°F)
Dewpoint: -19.0°C (-2°F) [RH = 44%]
Pressure (altimeter): 30.03 inches Hg (1017.0 mb)
Winds: from the WNW (290 degrees) at 7 MPH (6 knots; 3.1 m/s)
Visibility: 6 or more miles (10+ km)
Ceiling: ceiling and visibility are OK
Clouds: unknown
Weather: no significant weather observed at this time

METAR text: ZMUB 230330Z 32002MPS CAVOK M11/M19 Q1017 NOSIG RMK QFE655.2 45
Conditions at: ZMUB (ULAN-BATOR , MG) observed 0330 UTC 23 January 2019
Temperature: -11.0°C (12°F)
Dewpoint: -19.0°C (-2°F) [RH = 52%]
Pressure (altimeter): 30.03 inches Hg (1017.0 mb)
Winds: from the NW (320 degrees) at 5 MPH (4 knots; 2.1 m/s)
Visibility: 6 or more miles (10+ km)
Ceiling: ceiling and visibility are OK
Clouds: unknown
Weather: no significant weather observed at this time

METAR text: ZMUB 230300Z VRB01MPS CAVOK M11/M20 Q1017 NOSIG RMK QFE655.1 47
Conditions at: ZMUB (ULAN-BATOR , MG) observed 0300 UTC 23 January 2019
Temperature: -11.0°C (12°F)
Dewpoint: -20.0°C (-4°F) [RH = 47%]
Pressure (altimeter): 30.03 inches Hg (1017.0 mb)
Winds: variable direction winds at 2 MPH (2 knots; 1.0 m/s)
Visibility: 6 or more miles (10+ km)
Ceiling: ceiling and visibility are OK
Clouds: unknown
Weather: no significant weather observed at this time

METAR text: ZMUB 230230Z VRB01MPS 8000NW BKN250 M14/M20 Q1016 NOSIG RMK QFE655.1 60 NW MO
Conditions at: ZMUB (ULAN-BATOR , MG) observed 0230 UTC 23 January 2019
Temperature: -14.0°C ( 7°F)
Dewpoint: -20.0°C (-4°F) [RH = 60%]
Pressure (altimeter): 30.00 inches Hg (1016.0 mb)
Winds: variable direction winds at 2 MPH (2 knots; 1.0 m/s)
Visibility: 5 miles ( 8 km)
Ceiling: 25000 feet AGL
Clouds: broken clouds at 25000 feet AGL
Weather: no significant weather observed at this time

METAR text: ZMUB 230200Z VRB01MPS 8000NW SCT100 M16/M20 Q1016 NOSIG RMK QFE654.8 68 NW MO
Conditions at: ZMUB (ULAN-BATOR , MG) observed 0200 UTC 23 January 2019
Temperature: -16.0°C ( 3°F)
Dewpoint: -20.0°C (-4°F) [RH = 71%]
Pressure (altimeter): 30.00 inches Hg (1016.0 mb)
Winds: variable direction winds at 2 MPH (2 knots; 1.0 m/s)
Visibility: 5 miles ( 8 km)
Ceiling: at least 12,000 feet AGL
Clouds: scattered clouds at 10000 feet AGL
Weather: no significant weather observed at this time

METAR text: ZMUB 230130Z 00000MPS 8000NW SCT100 M19/M23 Q1015 NOSIG RMK QFE654.5 68 NW MO
Conditions at: ZMUB (ULAN-BATOR , MG) observed 0130 UTC 23 January 2019
Temperature: -19.0°C (-2°F)
Dewpoint: -23.0°C (-9°F) [RH = 71%]
Pressure (altimeter): 29.97 inches Hg (1015.0 mb)
Winds: calm
Visibility: 5 miles ( 8 km)
Ceiling: at least 12,000 feet AGL
Clouds: scattered clouds at 10000 feet AGL
Weather: no significant weather observed at this time

METAR text: ZMUB 230100Z 10002MPS 8000NW SCT100 M19/M23 Q1015 NOSIG RMK QFE654.2 67 NW MO
Conditions at: ZMUB (ULAN-BATOR , MG) observed 0100 UTC 23 January 2019
Temperature: -19.0°C (-2°F)
Dewpoint: -23.0°C (-9°F) [RH = 71%]
Pressure (altimeter): 29.97 inches Hg (1015.0 mb)
Winds: from the E (100 degrees) at 5 MPH (4 knots; 2.1 m/s)
Visibility: 5 miles ( 8 km)
Ceiling: at least 12,000 feet AGL
Clouds: scattered clouds at 10000 feet AGL
Weather: no significant weather observed at this time

METAR text: ZMUB 230030Z VRB02MPS 8000NW SCT100 M20/M24 Q1015 NOSIG RMK QFE654.2 72 NW MO
Conditions at: ZMUB (ULAN-BATOR , MG) observed 0030 UTC 23 January 2019
Temperature: -20.0°C (-4°F)
Dewpoint: -24.0°C (-11°F) [RH = 70%]
Pressure (altimeter): 29.97 inches Hg (1015.0 mb)
Winds: variable direction winds at 5 MPH (4 knots; 2.1 m/s)
Visibility: 5 miles ( 8 km)
Ceiling: at least 12,000 feet AGL
Clouds: scattered clouds at 10000 feet AGL
Weather: no significant weather observed at this time

METAR text: ZMUB 230000Z VRB02MPS 6000NW SCT100 M21/M25 Q1015 NOSIG RMK QFE653.9 72 NT
Conditions at: ZMUB (ULAN-BATOR , MG) observed 0000 UTC 23 January 2019
Temperature: -21.0°C (-6°F)
Dewpoint: -25.0°C (-13°F) [RH = 70%]
Pressure (altimeter): 29.97 inches Hg (1015.0 mb)
Winds: variable direction winds at 5 MPH (4 knots; 2.1 m/s)
Visibility: 4 miles ( 6 km)
Ceiling: at least 12,000 feet AGL
Clouds: scattered clouds at 10000 feet AGL
Weather: no significant weather observed at this time

METAR text: ZMUB 222330Z 16003MPS 6000NW NSC M19/M23 Q1014 NOSIG RMK QFE653.7 69 NT
Conditions at: ZMUB (ULAN-BATOR , MG) observed 2330 UTC 22 January 2019
Temperature: -19.0°C (-2°F)
Dewpoint: -23.0°C (-9°F) [RH = 71%]
Pressure (altimeter): 29.94 inches Hg (1014.0 mb)
Winds: from the SSE (160 degrees) at 7 MPH (6 knots; 3.1 m/s)
Visibility: 4 miles ( 6 km)
Ceiling: at least 12,000 feet AGL
Clouds: sky clear below 12,000 feet AGL
Weather: no significant weather observed at this time

METAR text: ZMUB 222300Z VRB02MPS 6000NW NSC M19/M23 Q1014 NOSIG RMK QFE653.5 68 NT
Conditions at: ZMUB (ULAN-BATOR , MG) observed 2300 UTC 22 January 2019
Temperature: -19.0°C (-2°F)
Dewpoint: -23.0°C (-9°F) [RH = 71%]
Pressure (altimeter): 29.94 inches Hg (1014.0 mb)
Winds: variable direction winds at 5 MPH (4 knots; 2.1 m/s)
Visibility: 4 miles ( 6 km)
Ceiling: at least 12,000 feet AGL
Clouds: sky clear below 12,000 feet AGL
Weather: no significant weather observed at this time

METAR text: ZMUB 222230Z VRB02MPS 6000NW NSC M17/M22 Q1014 NOSIG RMK QFE653.3 63 NT
Conditions at: ZMUB (ULAN-BATOR , MG) observed 2230 UTC 22 January 2019
Temperature: -17.0°C ( 1°F)
Dewpoint: -22.0°C (-8°F) [RH = 65%]
Pressure (altimeter): 29.94 inches Hg (1014.0 mb)
Winds: variable direction winds at 5 MPH (4 knots; 2.1 m/s)
Visibility: 4 miles ( 6 km)
Ceiling: at least 12,000 feet AGL
Clouds: sky clear below 12,000 feet AGL
Weather: no significant weather observed at this time

METAR text: ZMUB 222200Z 28004MPS 260V320 6000NW NSC M18/M22 Q1013 NOSIG RMK QFE653.0 67 NT
Conditions at: ZMUB (ULAN-BATOR , MG) observed 2200 UTC 22 January 2019
Temperature: -18.0°C (-0°F)
Dewpoint: -22.0°C (-8°F) [RH = 71%]
Pressure (altimeter): 29.91 inches Hg (1013.0 mb)
Winds: from the W (280 degrees) at 9 MPH (8 knots; 4.1 m/s)
Visibility: 4 miles ( 6 km)
Ceiling: at least 12,000 feet AGL
Clouds: sky clear below 12,000 feet AGL
Weather: no significant weather observed at this time

METAR text: ZMUB 222130Z VRB01MPS 6000NW NSC M22/M26 Q1013 NOSIG RMK QFE653.1 69 NT
Conditions at: ZMUB (ULAN-BATOR , MG) observed 2130 UTC 22 January 2019
Temperature: -22.0°C (-8°F)
Dewpoint: -26.0°C (-15°F) [RH = 70%]
Pressure (altimeter): 29.91 inches Hg (1013.0 mb)
Winds: variable direction winds at 2 MPH (2 knots; 1.0 m/s)
Visibility: 4 miles ( 6 km)
Ceiling: at least 12,000 feet AGL
Clouds: sky clear below 12,000 feet AGL
Weather: no significant weather observed at this time

METAR text: ZMUB 222100Z 10002MPS 6000NW NSC M22/M26 Q1014 NOSIG RMK QFE653.7 68 NT
Conditions at: ZMUB (ULAN-BATOR , MG) observed 2100 UTC 22 January 2019
Temperature: -22.0°C (-8°F)
Dewpoint: -26.0°C (-15°F) [RH = 70%]
Pressure (altimeter): 29.94 inches Hg (1014.0 mb)
Winds: from the E (100 degrees) at 5 MPH (4 knots; 2.1 m/s)
Visibility: 4 miles ( 6 km)
Ceiling: at least 12,000 feet AGL
Clouds: sky clear below 12,000 feet AGL
Weather: no significant weather observed at this time

METAR text: ZMUB 222030Z VRB01MPS 6000NW NSC M22/M25 Q1015 NOSIG RMK QFE654.2 70 NT
Conditions at: ZMUB (ULAN-BATOR , MG) observed 2030 UTC 22 January 2019
Temperature: -22.0°C (-8°F)
Dewpoint: -25.0°C (-13°F) [RH = 77%]
Pressure (altimeter): 29.97 inches Hg (1015.0 mb)
Winds: variable direction winds at 2 MPH (2 knots; 1.0 m/s)
Visibility: 4 miles ( 6 km)
Ceiling: at least 12,000 feet AGL
Clouds: sky clear below 12,000 feet AGL
Weather: no significant weather observed at this time

METAR text: ZMUB 222000Z VRB02MPS 6000NW NSC M22/M26 Q1015 NOSIG RMK QFE654.1 71 NT
Conditions at: ZMUB (ULAN-BATOR , MG) observed 2000 UTC 22 January 2019
Temperature: -22.0°C (-8°F)
Dewpoint: -26.0°C (-15°F) [RH = 70%]
Pressure (altimeter): 29.97 inches Hg (1015.0 mb)
Winds: variable direction winds at 5 MPH (4 knots; 2.1 m/s)
Visibility: 4 miles ( 6 km)
Ceiling: at least 12,000 feet AGL
Clouds: sky clear below 12,000 feet AGL
Weather: no significant weather observed at this time

METAR text: ZMUB 221900Z 00000MPS 6000NW NSC M21/M24 Q1015 NOSIG RMK QFE653.9 69 NT
Conditions at: ZMUB (ULAN-BATOR , MG) observed 1900 UTC 22 January 2019
Temperature: -21.0°C (-6°F)
Dewpoint: -24.0°C (-11°F) [RH = 77%]
Pressure (altimeter): 29.97 inches Hg (1015.0 mb)
Winds: calm
Visibility: 4 miles ( 6 km)
Ceiling: at least 12,000 feet AGL
Clouds: sky clear below 12,000 feet AGL
Weather: no significant weather observed at this time

METAR text: ZMUB 221800Z VRB01MPS 6000NW NSC M23/M26 Q1015 NOSIG RMK QFE654.4 69 NT
Conditions at: ZMUB (ULAN-BATOR , MG) observed 1800 UTC 22 January 2019
Temperature: -23.0°C (-9°F)
Dewpoint: -26.0°C (-15°F) [RH = 76%]
Pressure (altimeter): 29.97 inches Hg (1015.0 mb)
Winds: variable direction winds at 2 MPH (2 knots; 1.0 m/s)
Visibility: 4 miles ( 6 km)
Ceiling: at least 12,000 feet AGL
Clouds: sky clear below 12,000 feet AGL
Weather: no significant weather observed at this time

Forecast for: ZMUB (ULAN-BATOR , MG)
Text: TAF ZMUB 240440Z 2406/2512 VRB02MPS CAVOK TXM08/2407Z TNM25/2423Z
Forecast period: 0600 to 1800 UTC 24 January 2019
Forecast type: FROM: standard forecast or significant change
Winds: variable direction winds at 5 MPH (4 knots; 2.1 m/s)
Visibility: 6 or more miles 10+ km)
Ceiling: unknown
Clouds: missing
Weather: no significant weather forecast for this period
Text: BECMG 2418/2420 6000
Forecast period: 1800 UTC 24 January 2019 to 0300 UTC 25 January 2019
Forecast type: BECOMING: Conditions expected to become as follows by 2000 UTC 24 January 2019
Winds: variable direction winds at 5 MPH (4 knots; 2.1 m/s)
Visibility: 4 miles (6 km)
Ceiling: unknown
Clouds: missing
Weather: no significant weather forecast for this period
Text: BECMG 2503/2505 16005MPS 9999 NSW
Forecast period: 0300 to 0900 UTC 25 January 2019
Forecast type: BECOMING: Conditions expected to become as follows by 0500 UTC 25 January 2019
Winds: from the SSE (160 degrees) at 12 MPH (10 knots; 5.1 m/s)
Visibility: 6 or more miles 10+ km)
Ceiling: unknown
Clouds: missing
Weather: NSW  (no significant weather)
Text: BECMG 2509/2511 VRB02MPS
Forecast period: 0900 to 1200 UTC 25 January 2019
Forecast type: BECOMING: Conditions expected to become as follows by 1100 UTC 25 January 2019
Winds: variable direction winds at 5 MPH (4 knots; 2.1 m/s)
Visibility: 6 or more miles 10+ km)
Ceiling: unknown
Clouds: missing
Weather: NSW  (no significant weather)